createdAt,value
2024-02-19T00:01:16.396Z,7.60
2024-02-19T00:04:04.783Z,6.07
2024-02-19T00:06:50.570Z,6.32
2024-02-19T00:09:36.747Z,6.90
2024-02-19T00:12:22.747Z,3.97
2024-02-19T00:15:08.905Z,4.95
2024-02-19T00:17:54.324Z,6.50
2024-02-19T00:20:40.432Z,8.25
2024-02-19T00:23:27.919Z,6.82
2024-02-19T00:26:14.504Z,7.97
2024-02-19T00:29:00.337Z,6.30
2024-02-19T00:31:46.402Z,4.53
2024-02-19T00:34:31.889Z,9.20
2024-02-19T00:37:17.333Z,7.13
2024-02-19T00:40:05.710Z,6.90
2024-02-19T00:42:52.247Z,7.32
2024-02-19T00:45:38.022Z,5.53
2024-02-19T00:48:23.539Z,6.07
2024-02-19T00:51:09.779Z,6.50
2024-02-19T00:53:55.231Z,5.45
2024-02-19T00:56:40.771Z,4.93
2024-02-19T00:59:26.613Z,4.13
2024-02-19T01:02:12.322Z,5.43
2024-02-19T01:05:00.041Z,4.45
2024-02-19T01:07:45.720Z,4.13
2024-02-19T01:10:31.346Z,6.00
2024-02-19T01:13:17.648Z,3.30
2024-02-19T01:16:03.859Z,2.65
2024-02-19T01:18:49.777Z,3.30
2024-02-19T01:21:35.713Z,2.92
2024-02-19T01:24:21.185Z,4.95
2024-02-19T01:27:07.662Z,3.92
2024-02-19T01:29:53.487Z,3.55
2024-02-19T01:32:40.925Z,5.63
2024-02-19T01:35:27.296Z,2.55
2024-02-19T01:38:13.529Z,3.40
2024-02-19T01:40:59.755Z,2.83
2024-02-19T01:43:45.378Z,4.15
2024-02-19T01:46:32.464Z,3.05
2024-02-19T01:49:19.159Z,2.17
2024-02-19T01:52:06.642Z,3.13
2024-02-19T01:54:53.355Z,3.35
2024-02-19T01:57:40.720Z,4.97
2024-02-19T02:00:29.423Z,2.47
2024-02-19T02:03:23.847Z,1.23
2024-02-19T02:06:09.755Z,3.08
2024-02-19T02:08:56.652Z,1.90
2024-02-19T02:11:42.570Z,2.83
2024-02-19T02:14:28.464Z,1.08
2024-02-19T02:17:14.183Z,1.85
2024-02-19T02:20:00.054Z,2.28
2024-02-19T02:22:45.922Z,3.78
2024-02-19T02:25:34.000Z,1.50
2024-02-19T02:28:21.169Z,2.40
2024-02-19T02:31:08.367Z,2.22
2024-02-19T02:33:54.088Z,2.08
2024-02-19T02:36:41.578Z,2.17
2024-02-19T02:39:27.515Z,1.85
2024-02-19T02:42:13.324Z,2.83
2024-02-19T02:44:58.727Z,2.47
2024-02-19T02:47:44.920Z,1.88
2024-02-19T02:50:30.807Z,1.85
2024-02-19T02:53:16.820Z,1.50
2024-02-19T02:56:02.371Z,1.23
2024-02-19T02:58:49.208Z,1.70
2024-02-19T03:01:35.010Z,1.75
2024-02-19T03:04:20.995Z,1.83
2024-02-19T03:07:06.984Z,2.13
2024-02-19T03:09:54.189Z,1.23
2024-02-19T03:12:41.413Z,1.17
2024-02-19T03:15:27.334Z,1.33
2024-02-19T03:18:13.561Z,1.48
2024-02-19T03:21:00.144Z,1.13
2024-02-19T03:23:52.821Z,2.58
2024-02-19T03:26:41.588Z,1.42
2024-02-19T03:29:29.149Z,2.63
2024-02-19T03:32:14.611Z,0.70
2024-02-19T03:35:00.580Z,1.58
2024-02-19T03:37:47.540Z,0.95
2024-02-19T03:40:33.452Z,2.45
2024-02-19T03:43:19.136Z,2.58
2024-02-19T03:46:06.418Z,1.40
2024-02-19T03:48:51.826Z,1.02
2024-02-19T03:51:37.875Z,0.70
2024-02-19T03:54:24.357Z,0.93
2024-02-19T03:57:10.420Z,0.57
2024-02-19T03:59:56.004Z,2.75
2024-02-19T04:02:41.636Z,1.02
2024-02-19T04:05:27.020Z,2.03
2024-02-19T04:08:12.536Z,0.82
2024-02-19T04:10:57.989Z,1.75
2024-02-19T04:13:43.562Z,0.82
2024-02-19T04:16:29.769Z,1.13
2024-02-19T04:19:18.069Z,0.70
2024-02-19T04:22:03.826Z,1.17
2024-02-19T04:24:49.182Z,1.42
2024-02-19T04:27:35.239Z,0.70
2024-02-19T04:30:20.908Z,0.63
2024-02-19T04:33:06.899Z,2.15
2024-02-19T04:35:52.928Z,0.82
2024-02-19T04:38:38.483Z,1.95
2024-02-19T04:41:24.261Z,0.60
2024-02-19T04:44:09.730Z,2.22
2024-02-19T04:46:55.159Z,0.85
2024-02-19T04:49:41.198Z,1.45
2024-02-19T04:52:26.962Z,1.65
2024-02-19T04:55:13.029Z,1.17
2024-02-19T04:57:59.137Z,0.88
2024-02-19T05:00:45.656Z,1.63
2024-02-19T05:03:32.032Z,2.47
2024-02-19T05:06:17.853Z,0.80
2024-02-19T05:09:03.889Z,1.52
2024-02-19T05:11:49.796Z,0.95
2024-02-19T05:14:35.490Z,1.75
2024-02-19T05:17:21.172Z,0.65
2024-02-19T05:20:08.394Z,1.10
2024-02-19T05:22:54.791Z,1.38
2024-02-19T05:25:41.429Z,1.42
2024-02-19T05:28:27.158Z,1.20
2024-02-19T05:31:12.669Z,1.40
2024-02-19T05:33:59.304Z,7.10
2024-02-19T05:36:45.275Z,4.38
2024-02-19T05:39:30.974Z,2.40
2024-02-19T05:42:16.743Z,2.20
2024-02-19T05:45:02.413Z,2.17
2024-02-19T05:47:49.132Z,1.02
2024-02-19T05:50:37.960Z,1.55
2024-02-19T05:53:23.700Z,0.60
2024-02-19T05:56:10.358Z,2.08
2024-02-19T05:58:56.851Z,1.40
2024-02-19T06:01:42.704Z,1.88
2024-02-19T06:04:29.302Z,1.13
2024-02-19T06:07:15.887Z,2.28
2024-02-19T06:10:03.021Z,2.13
2024-02-19T06:12:48.556Z,2.92
2024-02-19T06:15:34.504Z,3.75
2024-02-19T06:18:20.602Z,3.88
2024-02-19T06:21:06.788Z,3.13
2024-02-19T06:23:52.273Z,1.83
2024-02-19T06:26:37.677Z,6.65
2024-02-19T06:29:23.203Z,6.45
2024-02-19T06:32:08.865Z,4.13
2024-02-19T06:34:55.070Z,2.70
2024-02-19T06:37:42.241Z,3.30
2024-02-19T06:40:28.153Z,2.63
2024-02-19T06:43:14.239Z,0.90
2024-02-19T06:46:00.215Z,3.03
2024-02-19T06:48:48.328Z,4.15
2024-02-19T06:51:35.694Z,10.57
2024-02-19T06:54:21.241Z,9.18
2024-02-19T06:57:06.547Z,5.15
2024-02-19T06:59:52.069Z,2.92
2024-02-19T07:02:38.566Z,9.30
2024-02-19T07:05:24.154Z,6.05
2024-02-19T07:08:10.165Z,2.83
2024-02-19T07:10:56.096Z,4.63
2024-02-19T07:13:42.142Z,4.65
2024-02-19T07:16:27.718Z,4.03
2024-02-19T07:19:13.521Z,4.50
2024-02-19T07:21:59.245Z,4.25
2024-02-19T07:24:45.297Z,4.90
2024-02-19T07:27:31.544Z,4.15
2024-02-19T07:30:17.466Z,5.28
2024-02-19T07:33:03.047Z,4.35
2024-02-19T07:35:50.352Z,3.42
2024-02-19T07:38:36.159Z,6.20
2024-02-19T07:41:21.596Z,6.63
2024-02-19T07:44:07.279Z,6.45
2024-02-19T07:46:52.958Z,9.48
2024-02-19T07:49:38.828Z,8.88
2024-02-19T07:52:24.836Z,7.95
2024-02-19T07:55:11.022Z,5.97
2024-02-19T07:58:02.013Z,11.50
2024-02-19T08:00:48.202Z,12.90
2024-02-19T08:03:36.171Z,9.02
2024-02-19T08:06:24.209Z,5.90
2024-02-19T08:09:10.016Z,7.03
2024-02-19T08:11:58.671Z,8.07
2024-02-19T08:14:44.864Z,7.17
2024-02-19T08:17:30.720Z,6.07
2024-02-19T08:20:16.680Z,4.60
2024-02-19T08:23:02.512Z,7.18
2024-02-19T08:25:48.888Z,3.67
2024-02-19T08:28:35.297Z,5.57
2024-02-19T08:31:26.270Z,6.05
2024-02-19T08:34:41.690Z,6.43
2024-02-19T08:37:37.067Z,6.45
2024-02-19T08:40:26.074Z,9.35
2024-02-19T08:43:16.878Z,2.65
2024-02-19T08:46:02.999Z,7.45
2024-02-19T08:48:49.788Z,3.53
2024-02-19T08:51:35.675Z,2.47
2024-02-19T08:55:20.605Z,3.63
2024-02-19T08:58:10.060Z,3.80
2024-02-19T09:00:58.536Z,3.30
2024-02-19T09:03:44.647Z,2.67
2024-02-19T09:06:30.398Z,5.05
2024-02-19T09:09:16.051Z,3.40
2024-02-19T09:12:02.313Z,7.05
2024-02-19T09:14:48.145Z,7.28
2024-02-19T09:17:34.508Z,2.85
2024-02-19T09:20:20.131Z,2.42
2024-02-19T09:23:06.444Z,4.03
2024-02-19T09:25:53.514Z,4.22
2024-02-19T09:28:39.833Z,3.03
2024-02-19T09:31:27.400Z,4.05
2024-02-19T09:34:17.984Z,5.13
2024-02-19T09:37:11.344Z,5.97
2024-02-19T09:40:00.399Z,2.72
2024-02-19T09:42:49.095Z,2.85
2024-02-19T09:45:37.276Z,5.10
2024-02-19T09:48:24.145Z,1.35
2024-02-19T09:51:16.520Z,2.70
2024-02-19T09:54:08.385Z,2.75
2024-02-19T09:56:55.955Z,3.92
2024-02-19T09:59:46.567Z,2.60
2024-02-19T10:02:32.242Z,3.25
2024-02-19T10:05:18.029Z,3.63
2024-02-19T10:08:13.949Z,2.80
2024-02-19T10:11:05.070Z,3.60
2024-02-19T10:13:53.566Z,2.25
2024-02-19T10:16:39.449Z,5.35
2024-02-19T10:19:27.363Z,4.63
2024-02-19T10:22:15.505Z,4.70
2024-02-19T10:25:08.466Z,2.72
2024-02-19T10:27:55.268Z,3.08
2024-02-19T10:30:41.483Z,5.32
2024-02-19T10:33:27.518Z,3.08
2024-02-19T10:36:16.693Z,2.58
2024-02-19T10:39:04.711Z,3.87
2024-02-19T10:41:50.361Z,2.05
2024-02-19T10:44:36.813Z,3.08
2024-02-19T10:47:24.013Z,2.55
2024-02-19T10:50:10.387Z,2.97
2024-02-19T10:52:57.185Z,1.25
2024-02-19T10:55:53.288Z,1.90
2024-02-19T10:58:56.745Z,1.52
2024-02-19T11:01:48.690Z,2.30
2024-02-19T11:04:35.607Z,1.15
2024-02-19T11:07:22.688Z,1.80
2024-02-19T11:10:09.586Z,3.55
2024-02-19T11:13:10.013Z,0.80
2024-02-19T11:15:56.403Z,2.15
2024-02-19T11:18:42.298Z,3.20
2024-02-19T11:21:28.112Z,3.80
2024-02-19T11:24:14.803Z,1.58
2024-02-19T11:27:01.001Z,1.30
2024-02-19T11:29:48.357Z,2.65
2024-02-19T11:32:36.395Z,2.08
2024-02-19T11:35:22.536Z,3.03
2024-02-19T11:38:08.097Z,2.60
2024-02-19T11:40:54.354Z,3.53
2024-02-19T11:43:40.125Z,1.13
2024-02-19T11:46:25.912Z,4.65
2024-02-19T11:49:13.283Z,1.23
2024-02-19T11:52:07.653Z,6.05
2024-02-19T11:54:56.706Z,3.38
2024-02-19T11:57:44.481Z,4.10
2024-02-19T12:00:31.592Z,1.75
2024-02-19T12:03:17.930Z,2.58
2024-02-19T12:06:04.417Z,2.88
2024-02-19T12:08:49.890Z,3.00
2024-02-19T12:11:36.405Z,2.25
2024-02-19T12:14:22.118Z,1.85
2024-02-19T12:17:08.684Z,2.47
2024-02-19T12:19:57.170Z,2.78
2024-02-19T12:22:43.508Z,1.65
2024-02-19T12:25:29.444Z,2.42
2024-02-19T12:28:15.753Z,2.88
2024-02-19T12:31:01.643Z,1.33
2024-02-19T12:33:47.789Z,1.13
2024-02-19T12:36:33.670Z,1.70
2024-02-19T12:39:19.519Z,3.95
2024-02-19T12:42:09.520Z,2.25
2024-02-19T12:44:56.575Z,3.50
2024-02-19T12:47:42.613Z,2.03
2024-02-19T12:50:29.407Z,3.72
2024-02-19T12:53:15.400Z,2.50
2024-02-19T12:56:01.490Z,1.38
2024-02-19T12:58:46.854Z,1.38
2024-02-19T13:01:33.830Z,6.00
2024-02-19T13:04:21.826Z,5.43
2024-02-19T13:07:08.689Z,8.40
2024-02-19T13:09:54.648Z,3.58
2024-02-19T13:12:40.418Z,6.50
2024-02-19T13:15:26.576Z,6.70
2024-02-19T13:18:12.659Z,7.60
2024-02-19T13:20:58.471Z,12.02
2024-02-19T13:23:45.542Z,20.13
2024-02-19T13:26:31.345Z,9.50
2024-02-19T13:29:16.925Z,6.97
2024-02-19T13:32:02.912Z,5.72
2024-02-19T13:34:48.937Z,4.07
2024-02-19T13:37:34.470Z,3.78
2024-02-19T13:40:20.473Z,21.58
2024-02-19T13:43:07.807Z,13.23
2024-02-19T13:46:03.108Z,11.35
2024-02-19T13:49:04.648Z,9.70
2024-02-19T13:51:50.536Z,20.05
2024-02-19T13:54:36.306Z,19.95
2024-02-19T13:57:21.881Z,8.93
2024-02-19T14:00:08.308Z,7.50
2024-02-19T14:02:55.094Z,13.90
2024-02-19T14:05:41.153Z,11.25
2024-02-19T14:08:28.311Z,6.30
2024-02-19T14:11:14.161Z,8.45
2024-02-19T14:14:02.649Z,5.68
2024-02-19T14:16:49.406Z,5.85
2024-02-19T14:19:37.744Z,2.78
2024-02-19T14:22:26.406Z,4.72
2024-02-19T14:25:13.162Z,2.75
2024-02-19T14:28:05.345Z,3.78
2024-02-19T14:30:51.481Z,5.13
2024-02-19T14:33:37.414Z,4.10
2024-02-19T14:36:25.522Z,3.38
2024-02-19T14:39:12.177Z,4.63
2024-02-19T14:41:57.684Z,5.45
2024-02-19T14:44:43.196Z,2.22
2024-02-19T14:47:28.874Z,5.10
2024-02-19T14:50:18.460Z,3.33
2024-02-19T14:53:05.357Z,6.90
2024-02-19T14:55:51.134Z,4.57
2024-02-19T14:58:37.214Z,3.50
2024-02-19T15:01:23.409Z,3.78
2024-02-19T15:04:12.159Z,3.78
2024-02-19T15:07:01.583Z,4.80
2024-02-19T15:09:47.144Z,5.60
2024-02-19T15:12:33.946Z,4.47
2024-02-19T15:15:21.291Z,3.13
2024-02-19T15:18:08.268Z,3.05
2024-02-19T15:20:54.219Z,8.88
2024-02-19T15:23:42.249Z,8.10
2024-02-19T15:26:28.167Z,6.32
2024-02-19T15:29:14.302Z,2.58
2024-02-19T15:32:01.701Z,3.38
2024-02-19T15:34:48.852Z,4.57
2024-02-19T15:37:37.713Z,5.43
2024-02-19T15:40:24.722Z,5.70
2024-02-19T15:43:10.474Z,6.47
2024-02-19T15:45:57.094Z,5.95
2024-02-19T15:48:43.333Z,10.90
2024-02-19T15:51:30.843Z,23.15
2024-02-19T15:54:17.503Z,14.05
2024-02-19T15:57:03.332Z,9.40
2024-02-19T15:59:49.016Z,6.30
2024-02-19T16:02:37.706Z,8.18
2024-02-19T16:05:23.794Z,4.65
2024-02-19T16:08:42.094Z,5.80
2024-02-19T16:11:27.921Z,6.00
2024-02-19T16:14:13.948Z,8.77
2024-02-19T16:16:59.359Z,3.80
2024-02-19T16:19:45.344Z,3.13
2024-02-19T16:22:31.453Z,5.25
2024-02-19T16:25:17.475Z,6.60
2024-02-19T16:28:03.345Z,4.10
2024-02-19T16:30:54.932Z,4.32
2024-02-19T16:33:42.749Z,6.03
2024-02-19T16:36:29.061Z,11.85
2024-02-19T16:39:15.694Z,14.45
2024-02-19T16:42:01.328Z,8.27
2024-02-19T16:44:47.394Z,9.02
2024-02-19T16:47:33.603Z,8.25
2024-02-19T16:50:19.634Z,8.10
2024-02-19T16:53:06.274Z,5.57
2024-02-19T16:56:19.745Z,5.72
2024-02-19T16:59:06.099Z,5.70
2024-02-19T17:01:55.755Z,4.35
2024-02-19T17:04:52.954Z,10.00
2024-02-19T17:07:39.513Z,6.45
2024-02-19T17:10:26.113Z,6.82
2024-02-19T17:13:14.629Z,7.25
2024-02-19T17:16:00.884Z,9.40
2024-02-19T17:18:47.061Z,9.57
2024-02-19T17:21:33.559Z,8.15
2024-02-19T17:24:19.234Z,4.20
2024-02-19T17:27:05.574Z,7.63
2024-02-19T17:29:51.402Z,5.80
2024-02-19T17:32:37.661Z,7.03
2024-02-19T17:35:25.096Z,3.97
2024-02-19T17:38:12.350Z,6.00
2024-02-19T17:41:04.234Z,3.50
2024-02-19T17:43:50.573Z,17.70
2024-02-19T17:46:37.150Z,19.92
2024-02-19T17:49:23.593Z,36.58
2024-02-19T17:52:09.795Z,26.25
2024-02-19T17:55:01.589Z,19.05
2024-02-19T17:57:50.565Z,43.60
2024-02-19T18:00:37.429Z,19.05
2024-02-19T18:03:23.256Z,11.77
2024-02-19T18:06:12.381Z,8.55
2024-02-19T18:08:59.044Z,6.07
2024-02-19T18:11:44.999Z,8.18
2024-02-19T18:14:33.580Z,4.70
2024-02-19T18:17:20.022Z,5.60
2024-02-19T18:20:08.378Z,7.45
2024-02-19T18:22:58.627Z,5.03
2024-02-19T18:25:44.295Z,5.43
2024-02-19T18:28:30.325Z,9.40
2024-02-19T18:31:16.776Z,15.40
2024-02-19T18:34:06.766Z,21.65
2024-02-19T18:36:55.671Z,23.58
2024-02-19T18:39:41.378Z,15.87
2024-02-19T18:42:27.739Z,9.95
2024-02-19T18:45:13.721Z,4.65
2024-02-19T18:47:59.255Z,6.43
2024-02-19T18:50:45.409Z,5.20
2024-02-19T18:53:31.425Z,6.13
2024-02-19T18:56:17.395Z,7.75
2024-02-19T18:59:03.441Z,3.65
2024-02-19T19:01:49.478Z,6.30
2024-02-19T19:04:38.585Z,8.45
2024-02-19T19:07:24.569Z,4.60
2024-02-19T19:10:10.616Z,6.40
2024-02-19T19:12:56.455Z,8.32
2024-02-19T19:15:44.284Z,8.35
2024-02-19T19:18:32.275Z,9.50
2024-02-19T19:21:18.153Z,5.60
2024-02-19T19:24:07.630Z,4.10
2024-02-19T19:29:39.490Z,4.78
2024-02-19T19:32:30.070Z,5.50
2024-02-19T19:35:16.368Z,5.15
2024-02-19T19:38:01.901Z,6.75
2024-02-19T19:40:47.553Z,10.52
2024-02-19T19:43:33.764Z,5.10
2024-02-19T19:46:19.411Z,9.20
2024-02-19T19:49:08.088Z,6.03
2024-02-19T19:51:54.066Z,6.70
2024-02-19T19:54:39.802Z,4.85
2024-02-19T19:57:28.034Z,6.78
2024-02-19T20:00:16.408Z,7.82
2024-02-19T20:03:04.069Z,7.32
2024-02-19T20:05:49.635Z,8.00
2024-02-19T20:08:36.253Z,8.07
2024-02-19T20:11:22.751Z,8.82
2024-02-19T20:14:11.081Z,6.82
2024-02-19T20:16:58.157Z,9.10
2024-02-19T20:19:44.091Z,7.63
2024-02-19T20:22:31.659Z,6.53
2024-02-19T20:25:20.743Z,5.78
2024-02-19T20:30:54.409Z,5.90
2024-02-19T20:33:40.573Z,5.00
2024-02-19T20:36:26.807Z,7.15
2024-02-19T20:39:15.397Z,5.68
2024-02-19T20:42:01.159Z,6.47
2024-02-19T20:44:49.845Z,5.50
2024-02-19T20:47:40.620Z,4.88
2024-02-19T20:50:26.998Z,9.30
2024-02-19T20:53:14.390Z,7.72
2024-02-19T20:56:06.122Z,10.98
2024-02-19T20:58:55.300Z,5.63
2024-02-19T21:01:43.712Z,4.35
2024-02-19T21:04:35.488Z,5.22
2024-02-19T21:07:23.330Z,3.75
2024-02-19T21:10:09.647Z,6.28
2024-02-19T21:12:56.605Z,7.15
2024-02-19T21:15:42.281Z,7.15
2024-02-19T21:18:34.468Z,4.75
2024-02-19T21:21:34.598Z,6.07
2024-02-19T21:24:21.221Z,5.93
2024-02-19T21:27:06.755Z,3.38
2024-02-19T21:29:57.084Z,4.60
2024-02-19T21:32:45.241Z,4.80
2024-02-19T21:35:31.395Z,5.15
2024-02-19T21:38:17.109Z,3.80
2024-02-19T21:41:03.693Z,4.38
2024-02-19T21:43:49.203Z,6.10
2024-02-19T21:46:37.007Z,4.22
2024-02-19T21:49:23.726Z,7.25
2024-02-19T21:52:09.595Z,3.97
2024-02-19T21:54:55.474Z,6.57
2024-02-19T21:57:41.625Z,4.50
2024-02-19T22:00:27.181Z,4.85
2024-02-19T22:03:12.809Z,4.95
2024-02-19T22:05:58.958Z,6.43
2024-02-19T22:08:44.336Z,5.85
2024-02-19T22:11:30.020Z,5.97
2024-02-19T22:14:16.092Z,5.72
2024-02-19T22:17:02.074Z,9.48
2024-02-19T22:19:47.567Z,5.75
2024-02-19T22:22:36.056Z,7.20
2024-02-19T22:25:21.951Z,6.22
2024-02-19T22:28:07.938Z,4.68
2024-02-19T22:30:53.818Z,4.28
2024-02-19T22:33:39.889Z,4.82
2024-02-19T22:36:25.713Z,8.10
2024-02-19T22:39:11.421Z,6.55
2024-02-19T22:41:56.987Z,8.68
2024-02-19T22:44:42.549Z,4.15
2024-02-19T22:47:30.897Z,6.18
2024-02-19T22:50:16.744Z,4.00
2024-02-19T22:53:02.828Z,4.45
2024-02-19T22:56:14.535Z,9.07
2024-02-19T22:59:13.976Z,3.20
2024-02-19T23:02:05.719Z,2.65
2024-02-19T23:04:51.434Z,6.20
2024-02-19T23:07:37.005Z,6.35
2024-02-19T23:10:23.147Z,7.40
2024-02-19T23:13:09.388Z,3.45
2024-02-19T23:15:55.906Z,6.95
2024-02-19T23:18:42.377Z,4.18
2024-02-19T23:21:27.948Z,2.58
2024-02-19T23:24:13.563Z,2.17
2024-02-19T23:26:58.999Z,5.50
2024-02-19T23:29:45.101Z,4.20
2024-02-19T23:32:30.897Z,4.60
2024-02-19T23:35:17.635Z,1.98
2024-02-19T23:38:05.457Z,3.47
2024-02-19T23:40:51.464Z,3.63
2024-02-19T23:43:38.157Z,3.53
2024-02-19T23:46:23.824Z,4.95
2024-02-19T23:49:09.897Z,4.75
2024-02-19T23:51:55.759Z,2.50
2024-02-19T23:54:42.094Z,2.95
2024-02-19T23:57:28.662Z,2.30
